sensor_id;sensor_type;location;lat;lon;timestamp;P1;durP1;ratioP1;P2;durP2;ratioP2
15498;SDS011;7851;52.260;6.030;2023-03-19T00:03:31;1.9;;;1.7;;
15498;SDS011;7851;52.260;6.030;2023-03-19T00:03:32;2;;;1.8;;
15498;SDS011;7851;52.260;6.030;2023-03-19T00:04:21;1.6;;;1.5;;
15498;SDS011;7851;52.260;6.030;2023-03-19T00:05:25;1.8;;;1.7;;
15498;SDS011;7851;52.260;6.030;2023-03-19T00:06:25;1.9;;;1.8;;
15498;SDS011;7851;52.260;6.030;2023-03-19T00:07:25;2.5;;;2.3;;
15498;SDS011;7851;52.260;6.030;2023-03-19T00:08:24;2.1;;;1.9;;
15498;SDS011;7851;52.260;6.030;2023-03-19T00:09:27;2.1;;;2;;
15498;SDS011;7851;52.260;6.030;2023-03-19T00:10:27;2;;;1.9;;
15498;SDS011;7851;52.260;6.030;2023-03-19T00:11:27;1.6;;;1.5;;
15498;SDS011;7851;52.260;6.030;2023-03-19T00:12:27;2.5;;;1.6;;
15498;SDS011;7851;52.260;6.030;2023-03-19T00:13:27;1.5;;;1.4;;
15498;SDS011;7851;52.260;6.030;2023-03-19T00:14:30;1.9;;;1.4;;
15498;SDS011;7851;52.260;6.030;2023-03-19T00:15:30;2.7;;;1.5;;
15498;SDS011;7851;52.260;6.030;2023-03-19T00:16:32;1.5;;;1.4;;
15498;SDS011;7851;52.260;6.030;2023-03-19T00:17:32;1.7;;;1.6;;
15498;SDS011;7851;52.260;6.030;2023-03-19T00:18:32;1.6;;;1.5;;
15498;SDS011;7851;52.260;6.030;2023-03-19T00:19:32;1.6;;;1.5;;
15498;SDS011;7851;52.260;6.030;2023-03-19T00:20:35;2;;;1.6;;
15498;SDS011;7851;52.260;6.030;2023-03-19T00:21:35;3.3;;;1.6;;
15498;SDS011;7851;52.260;6.030;2023-03-19T00:22:35;1.9;;;1.7;;
15498;SDS011;7851;52.260;6.030;2023-03-19T00:23:35;2.7;;;1.7;;
15498;SDS011;7851;52.260;6.030;2023-03-19T00:24:35;1.9;;;1.8;;
15498;SDS011;7851;52.260;6.030;2023-03-19T00:25:35;1.9;;;1.6;;
15498;SDS011;7851;52.260;6.030;2023-03-19T00:26:35;2;;;1.8;;
15498;SDS011;7851;52.260;6.030;2023-03-19T00:27:35;2;;;1.6;;
15498;SDS011;7851;52.260;6.030;2023-03-19T00:28:35;2;;;1.9;;
15498;SDS011;7851;52.260;6.030;2023-03-19T00:29:35;1.8;;;1.7;;
15498;SDS011;7851;52.260;6.030;2023-03-19T00:30:35;1.9;;;1.7;;
15498;SDS011;7851;52.260;6.030;2023-03-19T00:31:35;2.2;;;2.1;;
15498;SDS011;7851;52.260;6.030;2023-03-19T00:32:35;2;;;1.9;;
15498;SDS011;7851;52.260;6.030;2023-03-19T00:33:35;1.6;;;1.5;;
15498;SDS011;7851;52.260;6.030;2023-03-19T00:34:35;1.7;;;1.6;;
15498;SDS011;7851;52.260;6.030;2023-03-19T00:35:35;1.7;;;1.5;;
15498;SDS011;7851;52.260;6.030;2023-03-19T00:36:35;1.6;;;1.4;;
15498;SDS011;7851;52.260;6.030;2023-03-19T00:37:35;2.2;;;1.7;;
15498;SDS011;7851;52.260;6.030;2023-03-19T00:38:35;1.7;;;1.5;;
15498;SDS011;7851;52.260;6.030;2023-03-19T00:39:35;2.6;;;1.3;;
15498;SDS011;7851;52.260;6.030;2023-03-19T00:40:35;1.9;;;1.3;;
15498;SDS011;7851;52.260;6.030;2023-03-19T00:41:35;1.6;;;1.5;;
15498;SDS011;7851;52.260;6.030;2023-03-19T00:42:35;1.4;;;1.3;;
15498;SDS011;7851;52.260;6.030;2023-03-19T00:43:35;1.6;;;1.5;;
15498;SDS011;7851;52.260;6.030;2023-03-19T00:44:35;1.4;;;1.4;;
15498;SDS011;7851;52.260;6.030;2023-03-19T00:45:35;1.1;;;1.1;;
15498;SDS011;7851;52.260;6.030;2023-03-19T00:46:35;1.3;;;1.2;;
15498;SDS011;7851;52.260;6.030;2023-03-19T00:47:35;1.6;;;1.5;;
15498;SDS011;7851;52.260;6.030;2023-03-19T00:48:35;1.4;;;1.3;;
15498;SDS011;7851;52.260;6.030;2023-03-19T00:49:35;1.5;;;1.4;;
15498;SDS011;7851;52.260;6.030;2023-03-19T00:50:35;2;;;1.4;;
15498;SDS011;7851;52.260;6.030;2023-03-19T00:51:35;1.6;;;1.5;;
15498;SDS011;7851;52.260;6.030;2023-03-19T00:52:35;1.9;;;1.5;;
15498;SDS011;7851;52.260;6.030;2023-03-19T00:53:35;1.3;;;1.3;;
15498;SDS011;7851;52.260;6.030;2023-03-19T00:54:35;1.7;;;1.4;;
15498;SDS011;7851;52.260;6.030;2023-03-19T00:55:35;1.6;;;1.5;;
15498;SDS011;7851;52.260;6.030;2023-03-19T00:56:35;2;;;1.6;;
15498;SDS011;7851;52.260;6.030;2023-03-19T00:57:35;1.5;;;1.4;;
15498;SDS011;7851;52.260;6.030;2023-03-19T00:58:35;2;;;1.2;;
15498;SDS011;7851;52.260;6.030;2023-03-19T00:59:35;1.4;;;1.3;;
15498;SDS011;7851;52.260;6.030;2023-03-19T01:00:35;1.6;;;1.5;;
15498;SDS011;7851;52.260;6.030;2023-03-19T01:01:35;1.8;;;1.6;;
15498;SDS011;7851;52.260;6.030;2023-03-19T01:02:35;1.5;;;1.5;;
15498;SDS011;7851;52.260;6.030;2023-03-19T01:03:35;1.6;;;1.5;;
15498;SDS011;7851;52.260;6.030;2023-03-19T01:04:35;1.7;;;1.6;;
15498;SDS011;7851;52.260;6.030;2023-03-19T01:05:35;1.5;;;1.4;;
15498;SDS011;7851;52.260;6.030;2023-03-19T01:06:35;1.5;;;1.4;;
15498;SDS011;7851;52.260;6.030;2023-03-19T01:07:35;2;;;1.4;;
15498;SDS011;7851;52.260;6.030;2023-03-19T01:08:35;1.5;;;1.4;;
15498;SDS011;7851;52.260;6.030;2023-03-19T01:09:35;1.5;;;1.4;;
15498;SDS011;7851;52.260;6.030;2023-03-19T01:10:35;1.4;;;1.3;;
15498;SDS011;7851;52.260;6.030;2023-03-19T01:11:35;1.4;;;1.3;;
15498;SDS011;7851;52.260;6.030;2023-03-19T01:12:35;1.4;;;1.4;;
15498;SDS011;7851;52.260;6.030;2023-03-19T01:13:35;1.6;;;1.3;;
15498;SDS011;7851;52.260;6.030;2023-03-19T01:14:35;2.3;;;1.5;;
15498;SDS011;7851;52.260;6.030;2023-03-19T01:15:35;1.1;;;1.1;;
15498;SDS011;7851;52.260;6.030;2023-03-19T01:16:35;1.6;;;1.5;;
15498;SDS011;7851;52.260;6.030;2023-03-19T01:17:35;2;;;1.4;;
15498;SDS011;7851;52.260;6.030;2023-03-19T01:18:35;1.5;;;1.4;;
15498;SDS011;7851;52.260;6.030;2023-03-19T01:19:35;1.4;;;1.3;;
15498;SDS011;7851;52.260;6.030;2023-03-19T01:20:35;1.5;;;1.4;;
15498;SDS011;7851;52.260;6.030;2023-03-19T01:21:35;1.5;;;1.4;;
15498;SDS011;7851;52.260;6.030;2023-03-19T01:22:35;1.2;;;1.2;;
15498;SDS011;7851;52.260;6.030;2023-03-19T01:23:35;1.5;;;1.4;;
15498;SDS011;7851;52.260;6.030;2023-03-19T01:24:35;1.5;;;1.4;;
15498;SDS011;7851;52.260;6.030;2023-03-19T01:25:35;1.3;;;1.2;;
15498;SDS011;7851;52.260;6.030;2023-03-19T01:26:35;2.3;;;1.2;;
15498;SDS011;7851;52.260;6.030;2023-03-19T01:27:35;2.1;;;1.2;;
15498;SDS011;7851;52.260;6.030;2023-03-19T01:28:35;1.4;;;1.3;;
15498;SDS011;7851;52.260;6.030;2023-03-19T01:29:35;1.5;;;1.4;;
15498;SDS011;7851;52.260;6.030;2023-03-19T01:30:35;1.2;;;1.1;;
15498;SDS011;7851;52.260;6.030;2023-03-19T01:31:35;1.3;;;1.2;;
15498;SDS011;7851;52.260;6.030;2023-03-19T01:32:35;1.3;;;1.2;;
15498;SDS011;7851;52.260;6.030;2023-03-19T01:33:35;1.4;;;1.3;;
15498;SDS011;7851;52.260;6.030;2023-03-19T01:34:35;1.3;;;1.2;;
15498;SDS011;7851;52.260;6.030;2023-03-19T01:35:35;1.4;;;1.3;;
15498;SDS011;7851;52.260;6.030;2023-03-19T01:36:35;2.2;;;1.4;;
15498;SDS011;7851;52.260;6.030;2023-03-19T01:37:35;1.3;;;1.2;;
15498;SDS011;7851;52.260;6.030;2023-03-19T01:38:35;3;;;1.3;;
15498;SDS011;7851;52.260;6.030;2023-03-19T01:39:35;1.2;;;1.2;;
15498;SDS011;7851;52.260;6.030;2023-03-19T01:40:35;1.5;;;1.4;;
15498;SDS011;7851;52.260;6.030;2023-03-19T01:41:35;1.7;;;1.3;;
15498;SDS011;7851;52.260;6.030;2023-03-19T01:42:49;1.5;;;1.4;;
15498;SDS011;7851;52.260;6.030;2023-03-19T01:43:35;1.4;;;1.4;;
15498;SDS011;7851;52.260;6.030;2023-03-19T01:44:35;1.7;;;1.6;;
15498;SDS011;7851;52.260;6.030;2023-03-19T01:45:36;1.9;;;1.6;;
15498;SDS011;7851;52.260;6.030;2023-03-19T01:46:35;1.9;;;1.5;;
15498;SDS011;7851;52.260;6.030;2023-03-19T01:47:36;1.7;;;1.6;;
15498;SDS011;7851;52.260;6.030;2023-03-19T01:48:36;1.7;;;1.6;;
15498;SDS011;7851;52.260;6.030;2023-03-19T01:49:35;1.7;;;1.6;;
15498;SDS011;7851;52.260;6.030;2023-03-19T01:50:36;1.6;;;1.5;;
15498;SDS011;7851;52.260;6.030;2023-03-19T01:51:36;1.6;;;1.5;;
15498;SDS011;7851;52.260;6.030;2023-03-19T01:52:35;1.6;;;1.5;;
15498;SDS011;7851;52.260;6.030;2023-03-19T01:53:35;1.7;;;1.6;;
15498;SDS011;7851;52.260;6.030;2023-03-19T01:54:35;1.7;;;1.6;;
15498;SDS011;7851;52.260;6.030;2023-03-19T01:55:35;1.8;;;1.7;;
15498;SDS011;7851;52.260;6.030;2023-03-19T01:56:35;1.8;;;1.7;;
15498;SDS011;7851;52.260;6.030;2023-03-19T01:57:35;2.2;;;1.7;;
15498;SDS011;7851;52.260;6.030;2023-03-19T01:58:35;2.6;;;2;;
15498;SDS011;7851;52.260;6.030;2023-03-19T01:59:35;1.7;;;1.6;;
15498;SDS011;7851;52.260;6.030;2023-03-19T02:00:35;2;;;1.9;;
15498;SDS011;7851;52.260;6.030;2023-03-19T02:01:35;2.5;;;1.6;;
15498;SDS011;7851;52.260;6.030;2023-03-19T02:02:35;2.1;;;1.9;;
15498;SDS011;7851;52.260;6.030;2023-03-19T02:03:35;2;;;1.8;;
15498;SDS011;7851;52.260;6.030;2023-03-19T02:04:35;2.5;;;1.8;;
15498;SDS011;7851;52.260;6.030;2023-03-19T02:05:35;1.7;;;1.4;;
15498;SDS011;7851;52.260;6.030;2023-03-19T02:06:35;1.8;;;1.7;;
15498;SDS011;7851;52.260;6.030;2023-03-19T02:07:35;1.9;;;1.8;;
15498;SDS011;7851;52.260;6.030;2023-03-19T02:08:35;2.5;;;1.5;;
15498;SDS011;7851;52.260;6.030;2023-03-19T02:09:35;2.2;;;2;;
15498;SDS011;7851;52.260;6.030;2023-03-19T02:10:35;1.9;;;1.7;;
15498;SDS011;7851;52.260;6.030;2023-03-19T02:11:35;2.7;;;1.7;;
15498;SDS011;7851;52.260;6.030;2023-03-19T02:12:35;1.8;;;1.7;;
15498;SDS011;7851;52.260;6.030;2023-03-19T02:13:35;1.8;;;1.7;;
15498;SDS011;7851;52.260;6.030;2023-03-19T02:14:35;2.5;;;1.9;;
15498;SDS011;7851;52.260;6.030;2023-03-19T02:15:35;1.8;;;1.7;;
15498;SDS011;7851;52.260;6.030;2023-03-19T02:16:35;2.3;;;1.8;;
15498;SDS011;7851;52.260;6.030;2023-03-19T02:17:35;2.2;;;2;;
15498;SDS011;7851;52.260;6.030;2023-03-19T02:18:35;2.2;;;2.1;;
15498;SDS011;7851;52.260;6.030;2023-03-19T02:19:37;1.9;;;1.8;;
15498;SDS011;7851;52.260;6.030;2023-03-19T02:20:36;1.9;;;1.8;;
15498;SDS011;7851;52.260;6.030;2023-03-19T02:21:35;2;;;1.9;;
15498;SDS011;7851;52.260;6.030;2023-03-19T02:22:35;1.9;;;1.8;;
15498;SDS011;7851;52.260;6.030;2023-03-19T02:23:36;2;;;1.9;;
15498;SDS011;7851;52.260;6.030;2023-03-19T02:24:36;2.3;;;2;;
15498;SDS011;7851;52.260;6.030;2023-03-19T02:25:37;2;;;1.9;;
15498;SDS011;7851;52.260;6.030;2023-03-19T02:26:35;2;;;1.9;;
15498;SDS011;7851;52.260;6.030;2023-03-19T02:27:35;2.4;;;2.2;;
15498;SDS011;7851;52.260;6.030;2023-03-19T02:28:35;4.1;;;2.4;;
15498;SDS011;7851;52.260;6.030;2023-03-19T02:29:35;1.8;;;1.7;;
15498;SDS011;7851;52.260;6.030;2023-03-19T02:30:35;2.3;;;2.1;;
15498;SDS011;7851;52.260;6.030;2023-03-19T02:31:35;2.2;;;2;;
15498;SDS011;7851;52.260;6.030;2023-03-19T02:32:35;2.3;;;2.1;;
15498;SDS011;7851;52.260;6.030;2023-03-19T02:33:35;2.2;;;2.1;;
15498;SDS011;7851;52.260;6.030;2023-03-19T02:34:36;2.2;;;2.1;;
15498;SDS011;7851;52.260;6.030;2023-03-19T02:35:35;3.8;;;2.3;;
15498;SDS011;7851;52.260;6.030;2023-03-19T02:36:36;2.2;;;2.1;;
15498;SDS011;7851;52.260;6.030;2023-03-19T02:37:35;2.1;;;2;;
15498;SDS011;7851;52.260;6.030;2023-03-19T02:38:35;3.8;;;2.3;;
15498;SDS011;7851;52.260;6.030;2023-03-19T02:39:37;2;;;1.9;;
15498;SDS011;7851;52.260;6.030;2023-03-19T02:40:35;2.3;;;2.2;;
15498;SDS011;7851;52.260;6.030;2023-03-19T02:41:35;2;;;1.9;;
15498;SDS011;7851;52.260;6.030;2023-03-19T02:42:35;2.5;;;2.1;;
15498;SDS011;7851;52.260;6.030;2023-03-19T02:43:35;2.5;;;2.3;;
15498;SDS011;7851;52.260;6.030;2023-03-19T02:44:35;2.2;;;2;;
15498;SDS011;7851;52.260;6.030;2023-03-19T02:45:35;2.5;;;2.3;;
15498;SDS011;7851;52.260;6.030;2023-03-19T02:46:35;2.2;;;2;;
15498;SDS011;7851;52.260;6.030;2023-03-19T02:47:35;2.4;;;2.2;;
15498;SDS011;7851;52.260;6.030;2023-03-19T02:48:35;2.4;;;2.2;;
15498;SDS011;7851;52.260;6.030;2023-03-19T02:49:35;2.4;;;2.3;;
15498;SDS011;7851;52.260;6.030;2023-03-19T02:50:35;2.4;;;2.1;;
15498;SDS011;7851;52.260;6.030;2023-03-19T02:51:35;2.2;;;2;;
15498;SDS011;7851;52.260;6.030;2023-03-19T02:52:35;2.6;;;2.3;;
15498;SDS011;7851;52.260;6.030;2023-03-19T02:53:35;2.9;;;2.6;;
15498;SDS011;7851;52.260;6.030;2023-03-19T02:54:35;2.6;;;2.4;;
15498;SDS011;7851;52.260;6.030;2023-03-19T02:55:35;2.6;;;2.4;;
15498;SDS011;7851;52.260;6.030;2023-03-19T02:56:35;2.1;;;2;;
15498;SDS011;7851;52.260;6.030;2023-03-19T02:57:35;2.5;;;2.3;;
15498;SDS011;7851;52.260;6.030;2023-03-19T02:58:35;2.6;;;2.4;;
15498;SDS011;7851;52.260;6.030;2023-03-19T02:59:35;2.6;;;2.4;;
15498;SDS011;7851;52.260;6.030;2023-03-19T03:00:35;4.4;;;2.5;;
15498;SDS011;7851;52.260;6.030;2023-03-19T03:01:35;2.5;;;2.3;;
15498;SDS011;7851;52.260;6.030;2023-03-19T03:02:35;3.6;;;2.5;;
15498;SDS011;7851;52.260;6.030;2023-03-19T03:03:35;2.4;;;2.2;;
15498;SDS011;7851;52.260;6.030;2023-03-19T03:04:35;3.3;;;2.5;;
15498;SDS011;7851;52.260;6.030;2023-03-19T03:05:35;2.4;;;2.2;;
15498;SDS011;7851;52.260;6.030;2023-03-19T03:06:35;2.5;;;2.4;;
15498;SDS011;7851;52.260;6.030;2023-03-19T03:07:35;2.6;;;2.4;;
15498;SDS011;7851;52.260;6.030;2023-03-19T03:08:35;2.4;;;2.2;;
15498;SDS011;7851;52.260;6.030;2023-03-19T03:09:35;2.3;;;2.1;;
15498;SDS011;7851;52.260;6.030;2023-03-19T03:10:35;2.4;;;2.2;;
15498;SDS011;7851;52.260;6.030;2023-03-19T03:11:35;2.6;;;2.4;;
15498;SDS011;7851;52.260;6.030;2023-03-19T03:12:35;2.7;;;2.5;;
15498;SDS011;7851;52.260;6.030;2023-03-19T03:13:35;3;;;2.3;;
15498;SDS011;7851;52.260;6.030;2023-03-19T03:14:35;2.5;;;2.3;;
15498;SDS011;7851;52.260;6.030;2023-03-19T03:15:35;2.7;;;2.5;;
15498;SDS011;7851;52.260;6.030;2023-03-19T03:16:35;3.1;;;2.3;;
15498;SDS011;7851;52.260;6.030;2023-03-19T03:17:35;2.7;;;2.5;;
15498;SDS011;7851;52.260;6.030;2023-03-19T03:18:35;2.9;;;2.6;;
15498;SDS011;7851;52.260;6.030;2023-03-19T03:19:35;3;;;2.7;;
15498;SDS011;7851;52.260;6.030;2023-03-19T03:20:35;2.9;;;2.7;;
15498;SDS011;7851;52.260;6.030;2023-03-19T03:21:35;2.6;;;2.4;;
15498;SDS011;7851;52.260;6.030;2023-03-19T03:22:35;2.7;;;2.6;;
15498;SDS011;7851;52.260;6.030;2023-03-19T03:23:35;4.3;;;3;;
15498;SDS011;7851;52.260;6.030;2023-03-19T03:24:35;2.6;;;2.4;;
15498;SDS011;7851;52.260;6.030;2023-03-19T03:25:35;3.3;;;2.5;;
15498;SDS011;7851;52.260;6.030;2023-03-19T03:26:35;2.8;;;2.6;;
15498;SDS011;7851;52.260;6.030;2023-03-19T03:27:35;2.8;;;2.6;;
15498;SDS011;7851;52.260;6.030;2023-03-19T03:28:35;2.9;;;2.7;;
15498;SDS011;7851;52.260;6.030;2023-03-19T03:29:35;3.3;;;2.8;;
15498;SDS011;7851;52.260;6.030;2023-03-19T03:30:35;3.7;;;2.9;;
15498;SDS011;7851;52.260;6.030;2023-03-19T03:31:35;3.1;;;2.9;;
15498;SDS011;7851;52.260;6.030;2023-03-19T03:32:35;3.6;;;2.6;;
15498;SDS011;7851;52.260;6.030;2023-03-19T03:33:35;3.3;;;3;;
15498;SDS011;7851;52.260;6.030;2023-03-19T03:34:35;2.9;;;2.7;;
15498;SDS011;7851;52.260;6.030;2023-03-19T03:35:35;3.5;;;2.8;;
15498;SDS011;7851;52.260;6.030;2023-03-19T03:36:35;3.7;;;2.9;;
15498;SDS011;7851;52.260;6.030;2023-03-19T03:37:35;3.5;;;3.2;;
15498;SDS011;7851;52.260;6.030;2023-03-19T03:38:35;3.3;;;2.9;;
15498;SDS011;7851;52.260;6.030;2023-03-19T03:39:35;4;;;2.9;;
15498;SDS011;7851;52.260;6.030;2023-03-19T03:40:35;3.3;;;2.7;;
15498;SDS011;7851;52.260;6.030;2023-03-19T03:41:35;5.6;;;3.2;;
15498;SDS011;7851;52.260;6.030;2023-03-19T03:42:35;2.7;;;2.5;;
15498;SDS011;7851;52.260;6.030;2023-03-19T03:43:35;3.1;;;2.9;;
15498;SDS011;7851;52.260;6.030;2023-03-19T03:44:35;3.1;;;2.9;;
15498;SDS011;7851;52.260;6.030;2023-03-19T03:45:35;3.9;;;2.8;;
15498;SDS011;7851;52.260;6.030;2023-03-19T03:46:35;3.3;;;3;;
15498;SDS011;7851;52.260;6.030;2023-03-19T03:47:35;3.8;;;3;;
15498;SDS011;7851;52.260;6.030;2023-03-19T03:48:35;3.1;;;2.9;;
15498;SDS011;7851;52.260;6.030;2023-03-19T03:49:35;3.6;;;3.3;;
15498;SDS011;7851;52.260;6.030;2023-03-19T03:50:35;3.2;;;2.9;;
15498;SDS011;7851;52.260;6.030;2023-03-19T03:51:35;3.4;;;3;;
15498;SDS011;7851;52.260;6.030;2023-03-19T03:52:35;3.4;;;3.1;;
15498;SDS011;7851;52.260;6.030;2023-03-19T03:53:35;3.5;;;3.2;;
15498;SDS011;7851;52.260;6.030;2023-03-19T03:54:35;3.5;;;3.2;;
15498;SDS011;7851;52.260;6.030;2023-03-19T03:55:35;3.5;;;3.1;;
15498;SDS011;7851;52.260;6.030;2023-03-19T03:56:35;4.7;;;3.1;;
15498;SDS011;7851;52.260;6.030;2023-03-19T03:57:35;3.3;;;3;;
15498;SDS011;7851;52.260;6.030;2023-03-19T03:58:35;3.4;;;2.9;;
15498;SDS011;7851;52.260;6.030;2023-03-19T03:59:35;3.4;;;3.2;;
15498;SDS011;7851;52.260;6.030;2023-03-19T04:00:35;3.3;;;2.9;;
15498;SDS011;7851;52.260;6.030;2023-03-19T04:01:56;7.1;;;3.8;;
15498;SDS011;7851;52.260;6.030;2023-03-19T04:02:35;3.4;;;3.1;;
15498;SDS011;7851;52.260;6.030;2023-03-19T04:03:35;3.8;;;3.3;;
15498;SDS011;7851;52.260;6.030;2023-03-19T04:04:35;3.5;;;3.2;;
15498;SDS011;7851;52.260;6.030;2023-03-19T04:05:35;4.2;;;3.4;;
15498;SDS011;7851;52.260;6.030;2023-03-19T04:06:35;4;;;3.7;;
15498;SDS011;7851;52.260;6.030;2023-03-19T04:07:35;4.2;;;3.5;;
15498;SDS011;7851;52.260;6.030;2023-03-19T04:08:35;4.1;;;3.5;;
15498;SDS011;7851;52.260;6.030;2023-03-19T04:09:35;3.7;;;3.5;;
15498;SDS011;7851;52.260;6.030;2023-03-19T04:10:37;3.8;;;3.5;;
15498;SDS011;7851;52.260;6.030;2023-03-19T04:11:35;3.6;;;3.4;;
15498;SDS011;7851;52.260;6.030;2023-03-19T04:12:35;3.7;;;3.4;;
15498;SDS011;7851;52.260;6.030;2023-03-19T04:13:35;3.5;;;3.2;;
15498;SDS011;7851;52.260;6.030;2023-03-19T04:14:35;3.8;;;3.5;;
15498;SDS011;7851;52.260;6.030;2023-03-19T04:15:35;3.9;;;3.5;;
15498;SDS011;7851;52.260;6.030;2023-03-19T04:16:35;4;;;3.6;;
15498;SDS011;7851;52.260;6.030;2023-03-19T04:17:35;3.4;;;3.2;;
15498;SDS011;7851;52.260;6.030;2023-03-19T04:18:35;5.1;;;3.8;;
15498;SDS011;7851;52.260;6.030;2023-03-19T04:19:35;3.4;;;3.2;;
15498;SDS011;7851;52.260;6.030;2023-03-19T04:20:35;3.8;;;3.4;;
15498;SDS011;7851;52.260;6.030;2023-03-19T04:21:35;4;;;3.7;;
15498;SDS011;7851;52.260;6.030;2023-03-19T04:22:35;3.8;;;3.5;;
15498;SDS011;7851;52.260;6.030;2023-03-19T04:23:35;4.2;;;3.8;;
15498;SDS011;7851;52.260;6.030;2023-03-19T04:24:35;4.3;;;3.8;;
15498;SDS011;7851;52.260;6.030;2023-03-19T04:25:37;4.4;;;4;;
15498;SDS011;7851;52.260;6.030;2023-03-19T04:26:35;4.3;;;3.7;;
15498;SDS011;7851;52.260;6.030;2023-03-19T04:27:35;4;;;3.7;;
15498;SDS011;7851;52.260;6.030;2023-03-19T04:28:35;4;;;3.5;;
15498;SDS011;7851;52.260;6.030;2023-03-19T04:29:35;4.1;;;3.8;;
15498;SDS011;7851;52.260;6.030;2023-03-19T04:30:35;4.1;;;3.8;;
15498;SDS011;7851;52.260;6.030;2023-03-19T04:31:35;4.3;;;3.9;;
15498;SDS011;7851;52.260;6.030;2023-03-19T04:32:35;3.8;;;3.5;;
15498;SDS011;7851;52.260;6.030;2023-03-19T04:33:35;4.2;;;3.8;;
15498;SDS011;7851;52.260;6.030;2023-03-19T04:34:35;4.3;;;3.9;;
15498;SDS011;7851;52.260;6.030;2023-03-19T04:35:35;5.6;;;4.3;;
15498;SDS011;7851;52.260;6.030;2023-03-19T04:36:35;5.2;;;4.7;;
15498;SDS011;7851;52.260;6.030;2023-03-19T04:37:35;4.5;;;4.1;;
15498;SDS011;7851;52.260;6.030;2023-03-19T04:38:35;4;;;3.7;;
15498;SDS011;7851;52.260;6.030;2023-03-19T04:39:35;4.2;;;3.8;;
15498;SDS011;7851;52.260;6.030;2023-03-19T04:40:35;4.3;;;4;;
15498;SDS011;7851;52.260;6.030;2023-03-19T04:41:35;6;;;4.1;;
15498;SDS011;7851;52.260;6.030;2023-03-19T04:42:35;6.2;;;4.1;;
15498;SDS011;7851;52.260;6.030;2023-03-19T04:43:35;3.8;;;3.6;;
15498;SDS011;7851;52.260;6.030;2023-03-19T04:44:35;4.7;;;4.2;;
15498;SDS011;7851;52.260;6.030;2023-03-19T04:45:35;4.7;;;4.2;;
15498;SDS011;7851;52.260;6.030;2023-03-19T04:46:35;4.3;;;3.9;;
15498;SDS011;7851;52.260;6.030;2023-03-19T04:47:35;4.1;;;3.7;;
15498;SDS011;7851;52.260;6.030;2023-03-19T04:48:35;4.6;;;4.3;;
15498;SDS011;7851;52.260;6.030;2023-03-19T04:49:35;4.9;;;3.8;;
15498;SDS011;7851;52.260;6.030;2023-03-19T04:50:35;4.4;;;4.1;;
15498;SDS011;7851;52.260;6.030;2023-03-19T04:51:35;4.4;;;4;;
15498;SDS011;7851;52.260;6.030;2023-03-19T04:52:35;4.4;;;4;;
15498;SDS011;7851;52.260;6.030;2023-03-19T04:53:35;4.8;;;4.3;;
15498;SDS011;7851;52.260;6.030;2023-03-19T04:54:35;4.7;;;4.2;;
15498;SDS011;7851;52.260;6.030;2023-03-19T04:55:35;4.7;;;4.3;;
15498;SDS011;7851;52.260;6.030;2023-03-19T04:56:35;4.9;;;4.4;;
15498;SDS011;7851;52.260;6.030;2023-03-19T04:57:35;4;;;3.7;;
15498;SDS011;7851;52.260;6.030;2023-03-19T04:58:35;4.1;;;3.8;;
15498;SDS011;7851;52.260;6.030;2023-03-19T04:59:35;4.2;;;3.8;;
15498;SDS011;7851;52.260;6.030;2023-03-19T05:00:35;5;;;4.2;;
15498;SDS011;7851;52.260;6.030;2023-03-19T05:01:35;5.4;;;4.2;;
15498;SDS011;7851;52.260;6.030;2023-03-19T05:02:35;5.8;;;4.3;;
15498;SDS011;7851;52.260;6.030;2023-03-19T05:03:35;4.8;;;4.4;;
15498;SDS011;7851;52.260;6.030;2023-03-19T05:04:35;4.5;;;4.1;;
15498;SDS011;7851;52.260;6.030;2023-03-19T05:05:35;4.4;;;4;;
15498;SDS011;7851;52.260;6.030;2023-03-19T05:06:35;6.1;;;4.1;;
15498;SDS011;7851;52.260;6.030;2023-03-19T05:07:35;4.2;;;3.9;;
15498;SDS011;7851;52.260;6.030;2023-03-19T05:08:35;4.7;;;4.2;;
15498;SDS011;7851;52.260;6.030;2023-03-19T05:09:35;4.3;;;4;;
15498;SDS011;7851;52.260;6.030;2023-03-19T05:10:35;4.8;;;4.4;;
15498;SDS011;7851;52.260;6.030;2023-03-19T05:11:35;5;;;4.5;;
15498;SDS011;7851;52.260;6.030;2023-03-19T05:12:35;5.1;;;4.5;;
15498;SDS011;7851;52.260;6.030;2023-03-19T05:13:35;5.1;;;4.5;;
15498;SDS011;7851;52.260;6.030;2023-03-19T05:14:35;5.2;;;4.7;;
15498;SDS011;7851;52.260;6.030;2023-03-19T05:15:35;5.3;;;4.8;;
15498;SDS011;7851;52.260;6.030;2023-03-19T05:16:35;5.2;;;4.7;;
15498;SDS011;7851;52.260;6.030;2023-03-19T05:17:35;5.3;;;4.8;;
15498;SDS011;7851;52.260;6.030;2023-03-19T05:18:35;5.7;;;5.1;;
15498;SDS011;7851;52.260;6.030;2023-03-19T05:19:35;5.6;;;5;;
15498;SDS011;7851;52.260;6.030;2023-03-19T05:20:35;5.4;;;5;;
15498;SDS011;7851;52.260;6.030;2023-03-19T05:21:36;5.9;;;5.1;;
15498;SDS011;7851;52.260;6.030;2023-03-19T05:22:35;5.4;;;4.9;;
15498;SDS011;7851;52.260;6.030;2023-03-19T05:23:35;6;;;5.5;;
15498;SDS011;7851;52.260;6.030;2023-03-19T05:24:35;5.5;;;5;;
15498;SDS011;7851;52.260;6.030;2023-03-19T05:25:35;6.2;;;5.7;;
15498;SDS011;7851;52.260;6.030;2023-03-19T05:26:35;6.2;;;5.7;;
15498;SDS011;7851;52.260;6.030;2023-03-19T05:27:35;6.8;;;5.9;;
15498;SDS011;7851;52.260;6.030;2023-03-19T05:28:35;6.9;;;6;;
15498;SDS011;7851;52.260;6.030;2023-03-19T05:29:35;6.3;;;5.7;;
15498;SDS011;7851;52.260;6.030;2023-03-19T05:30:35;6.4;;;5.8;;
15498;SDS011;7851;52.260;6.030;2023-03-19T05:31:35;8.2;;;6.6;;
15498;SDS011;7851;52.260;6.030;2023-03-19T05:32:35;7;;;6.3;;
15498;SDS011;7851;52.260;6.030;2023-03-19T05:33:35;6.7;;;6.1;;
15498;SDS011;7851;52.260;6.030;2023-03-19T05:34:35;6.6;;;6;;
15498;SDS011;7851;52.260;6.030;2023-03-19T05:35:35;7.6;;;6.9;;
15498;SDS011;7851;52.260;6.030;2023-03-19T05:36:35;8.9;;;7.1;;
15498;SDS011;7851;52.260;6.030;2023-03-19T05:37:34;8.9;;;7.1;;
15498;SDS011;7851;52.260;6.030;2023-03-19T05:38:34;8.8;;;7.1;;
15498;SDS011;7851;52.260;6.030;2023-03-19T05:39:35;7.9;;;7.1;;
15498;SDS011;7851;52.260;6.030;2023-03-19T05:40:35;7.9;;;7.2;;
15498;SDS011;7851;52.260;6.030;2023-03-19T05:41:35;9.2;;;7.4;;
15498;SDS011;7851;52.260;6.030;2023-03-19T05:42:35;9.7;;;7.7;;
15498;SDS011;7851;52.260;6.030;2023-03-19T05:43:35;9;;;7.6;;
15498;SDS011;7851;52.260;6.030;2023-03-19T05:44:35;9.7;;;8.2;;
15498;SDS011;7851;52.260;6.030;2023-03-19T05:45:35;9.4;;;8.1;;
15498;SDS011;7851;52.260;6.030;2023-03-19T05:46:35;8.7;;;7.6;;
15498;SDS011;7851;52.260;6.030;2023-03-19T05:47:35;11.2;;;9.7;;
15498;SDS011;7851;52.260;6.030;2023-03-19T05:48:35;11.5;;;9.5;;
15498;SDS011;7851;52.260;6.030;2023-03-19T05:49:35;9.5;;;8.6;;
15498;SDS011;7851;52.260;6.030;2023-03-19T05:50:35;13.4;;;9.5;;
15498;SDS011;7851;52.260;6.030;2023-03-19T05:51:35;9.5;;;8.6;;
15498;SDS011;7851;52.260;6.030;2023-03-19T05:52:35;11.6;;;9.9;;
15498;SDS011;7851;52.260;6.030;2023-03-19T05:53:35;10.8;;;9.6;;
15498;SDS011;7851;52.260;6.030;2023-03-19T05:54:35;10.4;;;9.1;;
15498;SDS011;7851;52.260;6.030;2023-03-19T05:55:35;10;;;9;;
15498;SDS011;7851;52.260;6.030;2023-03-19T05:56:35;11.4;;;9.8;;
15498;SDS011;7851;52.260;6.030;2023-03-19T05:57:35;11.6;;;9.6;;
15498;SDS011;7851;52.260;6.030;2023-03-19T05:58:35;11.4;;;9.7;;
15498;SDS011;7851;52.260;6.030;2023-03-19T05:59:35;11;;;9.5;;
15498;SDS011;7851;52.260;6.030;2023-03-19T06:00:35;11.8;;;10;;
15498;SDS011;7851;52.260;6.030;2023-03-19T06:01:34;9.8;;;8.8;;
15498;SDS011;7851;52.260;6.030;2023-03-19T06:02:35;11.3;;;10;;
15498;SDS011;7851;52.260;6.030;2023-03-19T06:03:35;11.8;;;10.6;;
15498;SDS011;7851;52.260;6.030;2023-03-19T06:04:34;11.2;;;9.8;;
15498;SDS011;7851;52.260;6.030;2023-03-19T06:05:35;11.1;;;9.3;;
15498;SDS011;7851;52.260;6.030;2023-03-19T06:06:35;11.4;;;10;;
15498;SDS011;7851;52.260;6.030;2023-03-19T06:07:35;11.6;;;10.4;;
15498;SDS011;7851;52.260;6.030;2023-03-19T06:08:35;11.2;;;10.1;;
15498;SDS011;7851;52.260;6.030;2023-03-19T06:09:34;11.9;;;10.7;;
15498;SDS011;7851;52.260;6.030;2023-03-19T06:10:35;10.7;;;9.6;;
15498;SDS011;7851;52.260;6.030;2023-03-19T06:11:35;13.2;;;9.6;;
15498;SDS011;7851;52.260;6.030;2023-03-19T06:12:34;11.3;;;9.8;;
15498;SDS011;7851;52.260;6.030;2023-03-19T06:13:35;11.9;;;10.5;;
15498;SDS011;7851;52.260;6.030;2023-03-19T06:14:35;12.8;;;10.4;;
15498;SDS011;7851;52.260;6.030;2023-03-19T06:15:35;12.4;;;9.9;;
15498;SDS011;7851;52.260;6.030;2023-03-19T06:16:35;11.8;;;9.1;;
15498;SDS011;7851;52.260;6.030;2023-03-19T06:17:35;11.3;;;10.1;;
15498;SDS011;7851;52.260;6.030;2023-03-19T06:18:34;11.3;;;10.2;;
15498;SDS011;7851;52.260;6.030;2023-03-19T06:19:35;10.8;;;9.2;;
15498;SDS011;7851;52.260;6.030;2023-03-19T06:20:34;10.8;;;9.6;;
15498;SDS011;7851;52.260;6.030;2023-03-19T06:21:35;12.6;;;9.8;;
15498;SDS011;7851;52.260;6.030;2023-03-19T06:22:34;12.3;;;11;;